Time,TemperatureF,DewpointF,PressureIn,WindDirection,WindDirectionDegrees,WindSpeedMPH,WindSpeedGustMPH,Humidity,HourlyPrecipIn,Conditions,Clouds,dailyrainin,SoftwareType,DateUTC
2013-05-03 00:02:00,37.0,35.0,-100.00,North,8,12.0,24.0,93,0.01,,,0.71,,2013-05-03 05:02:00,
2013-05-03 00:12:00,37.0,35.0,-100.00,North,8,12.0,24.0,93,0.01,,,0.71,,2013-05-03 05:12:00,
2013-05-03 00:21:00,37.0,35.0,-100.00,North,8,12.0,24.0,93,0.01,,,0.71,,2013-05-03 05:21:00,
2013-05-03 00:52:00,37.0,35.0,-100.00,North,11,11.0,21.0,94,0.01,,,0.72,,2013-05-03 05:52:00,
2013-05-03 01:02:00,37.0,35.0,-100.00,North,11,11.0,21.0,94,0.01,,,0.72,,2013-05-03 06:02:00,
2013-05-03 01:12:00,37.0,35.0,-100.00,North,11,11.0,21.0,94,0.01,,,0.72,,2013-05-03 06:12:00,
2013-05-03 01:21:00,37.0,35.0,-100.00,North,11,11.0,21.0,94,0.01,,,0.72,,2013-05-03 06:21:00,
2013-05-03 01:52:00,35.0,34.0,-100.00,North,11,11.0,20.0,95,0.02,,,0.74,,2013-05-03 06:52:00,
2013-05-03 02:01:00,35.0,34.0,-100.00,North,11,11.0,20.0,95,0.02,,,0.74,,2013-05-03 07:01:00,
2013-05-03 02:11:00,35.0,34.0,-100.00,North,11,11.0,20.0,95,0.02,,,0.74,,2013-05-03 07:11:00,
2013-05-03 02:21:00,35.0,34.0,-100.00,North,11,11.0,20.0,95,0.02,,,0.74,,2013-05-03 07:21:00,
2013-05-03 02:52:00,36.0,35.0,-100.00,North,6,10.0,21.0,95,0.08,,,0.82,,2013-05-03 07:52:00,
2013-05-03 03:02:00,36.0,35.0,-100.00,North,6,10.0,21.0,95,0.08,,,0.82,,2013-05-03 08:02:00,
2013-05-03 03:11:00,36.0,35.0,-100.00,North,6,10.0,21.0,95,0.08,,,0.82,,2013-05-03 08:11:00,
2013-05-03 03:21:00,36.0,35.0,-100.00,North,6,10.0,21.0,95,0.08,,,0.82,,2013-05-03 08:21:00,
2013-05-03 03:53:00,36.0,34.0,-100.00,NNE,16,14.0,21.0,93,0.03,,,0.85,,2013-05-03 08:53:00,
2013-05-03 04:01:00,36.0,34.0,-100.00,NNE,16,14.0,21.0,93,0.03,,,0.85,,2013-05-03 09:01:00,
2013-05-03 04:12:00,36.0,34.0,-100.00,NNE,16,14.0,21.0,93,0.03,,,0.85,,2013-05-03 09:12:00,
2013-05-03 04:21:00,36.0,34.0,-100.00,NNE,16,14.0,21.0,93,0.03,,,0.85,,2013-05-03 09:21:00,
2013-05-03 04:53:00,37.0,35.0,-100.00,NNE,25,11.0,20.0,93,0.00,,,0.85,,2013-05-03 09:53:00,
2013-05-03 05:03:00,37.0,35.0,-100.00,NNE,25,11.0,20.0,93,0.00,,,0.85,,2013-05-03 10:03:00,
2013-05-03 05:12:00,37.0,35.0,-100.00,NNE,25,11.0,20.0,93,0.00,,,0.85,,2013-05-03 10:12:00,
2013-05-03 05:22:00,37.0,35.0,-100.00,NNE,25,11.0,20.0,93,0.00,,,0.85,,2013-05-03 10:22:00,
2013-05-03 05:52:00,36.0,34.0,-100.00,NE,39,15.0,19.0,93,0.00,,,0.85,,2013-05-03 10:52:00,
2013-05-03 06:02:00,36.0,34.0,-100.00,NE,39,15.0,19.0,93,0.00,,,0.85,,2013-05-03 11:02:00,
2013-05-03 06:11:00,36.0,34.0,-100.00,NE,39,15.0,19.0,93,0.00,,,0.85,,2013-05-03 11:11:00,
2013-05-03 06:22:00,36.0,34.0,-100.00,NE,39,15.0,19.0,93,0.00,,,0.85,,2013-05-03 11:22:00,
2013-05-03 06:52:00,36.0,35.0,-100.00,NE,42,15.0,22.0,95,0.00,,,0.85,,2013-05-03 11:52:00,
2013-05-03 07:02:00,36.0,35.0,-100.00,NE,42,15.0,22.0,95,0.00,,,0.85,,2013-05-03 12:02:00,
2013-05-03 07:11:00,36.0,35.0,-100.00,NE,42,15.0,22.0,95,0.00,,,0.85,,2013-05-03 12:11:00,
2013-05-03 07:21:00,36.0,35.0,-100.00,NE,42,15.0,22.0,95,0.00,,,0.85,,2013-05-03 12:21:00,
2013-05-03 07:52:00,36.0,35.0,-100.00,NE,44,11.0,21.0,96,0.01,,,0.86,,2013-05-03 12:52:00,
2013-05-03 08:01:00,36.0,35.0,-100.00,NE,44,11.0,21.0,96,0.01,,,0.86,,2013-05-03 13:01:00,
2013-05-03 08:11:00,36.0,35.0,-100.00,NE,44,11.0,21.0,96,0.01,,,0.86,,2013-05-03 13:11:00,
2013-05-03 08:22:00,36.0,35.0,-100.00,NE,44,11.0,21.0,96,0.01,,,0.86,,2013-05-03 13:22:00,
2013-05-03 08:52:00,36.0,35.0,-100.00,NE,49,11.0,22.0,95,0.01,,,0.87,,2013-05-03 13:52:00,
2013-05-03 09:02:00,36.0,35.0,-100.00,NE,49,11.0,22.0,95,0.01,,,0.87,,2013-05-03 14:02:00,
2013-05-03 09:11:00,36.0,35.0,-100.00,NE,49,11.0,22.0,95,0.01,,,0.87,,2013-05-03 14:11:00,
2013-05-03 09:22:00,36.0,35.0,-100.00,NE,49,11.0,22.0,95,0.01,,,0.87,,2013-05-03 14:22:00,
2013-05-03 09:52:00,37.0,35.0,-100.00,NE,36,11.0,22.0,94,0.09,,,0.96,,2013-05-03 14:52:00,
2013-05-03 10:01:00,37.0,35.0,-100.00,NE,36,11.0,22.0,94,0.09,,,0.96,,2013-05-03 15:01:00,
2013-05-03 10:11:00,37.0,35.0,-100.00,NE,36,11.0,22.0,94,0.09,,,0.96,,2013-05-03 15:11:00,
2013-05-03 10:22:00,37.0,35.0,-100.00,NE,36,11.0,22.0,94,0.09,,,0.96,,2013-05-03 15:22:00,
2013-05-03 10:53:00,39.0,37.0,-100.00,NE,49,14.0,20.0,92,0.00,,,0.96,,2013-05-03 15:53:00,
2013-05-03 11:03:00,39.0,37.0,-100.00,NE,49,14.0,20.0,92,0.00,,,0.96,,2013-05-03 16:03:00,
2013-05-03 11:13:00,39.0,37.0,-100.00,NE,49,14.0,20.0,92,0.00,,,0.96,,2013-05-03 16:13:00,
2013-05-03 11:23:00,39.0,37.0,-100.00,NE,49,14.0,20.0,92,0.00,,,0.96,,2013-05-03 16:23:00,
2013-05-03 11:52:00,40.0,38.0,-100.00,NE,51,9.0,18.0,91,0.00,,,0.96,,2013-05-03 16:52:00,
2013-05-03 12:02:00,40.0,38.0,-100.00,NE,51,9.0,18.0,91,0.00,,,0.96,,2013-05-03 17:02:00,
2013-05-03 12:12:00,40.0,38.0,-100.00,NE,51,9.0,18.0,91,0.00,,,0.96,,2013-05-03 17:12:00,
2013-05-03 12:23:00,40.0,38.0,-100.00,NE,51,9.0,18.0,91,0.00,,,0.96,,2013-05-03 17:23:00,
2013-05-03 12:52:00,42.0,40.0,-100.00,NE,41,10.0,14.0,93,0.01,,,0.97,,2013-05-03 17:52:00,
2013-05-03 13:01:00,42.0,40.0,-100.00,NE,41,10.0,14.0,93,0.01,,,0.97,,2013-05-03 18:01:00,
2013-05-03 13:12:00,42.0,40.0,-100.00,NE,41,10.0,14.0,93,0.01,,,0.97,,2013-05-03 18:12:00,
2013-05-03 13:21:00,42.0,40.0,-100.00,NE,41,10.0,14.0,93,0.01,,,0.97,,2013-05-03 18:21:00,
2013-05-03 13:52:00,44.0,41.0,-100.00,NE,44,12.0,16.0,90,0.07,,,1.04,,2013-05-03 18:52:00,
2013-05-03 14:01:00,44.0,41.0,-100.00,NE,44,12.0,16.0,90,0.07,,,1.04,,2013-05-03 19:01:00,
2013-05-03 14:11:00,44.0,41.0,-100.00,NE,44,12.0,16.0,90,0.07,,,1.04,,2013-05-03 19:11:00,
2013-05-03 14:21:00,44.0,41.0,-100.00,NE,44,12.0,16.0,90,0.07,,,1.04,,2013-05-03 19:21:00,
2013-05-03 14:52:00,45.0,43.0,-100.00,NE,40,10.0,15.0,92,0.00,,,0.79,,2013-05-03 19:52:00,
2013-05-03 15:02:00,45.0,43.0,-100.00,NE,40,10.0,15.0,92,0.00,,,0.79,,2013-05-03 20:02:00,
2013-05-03 15:11:00,45.0,43.0,-100.00,NE,40,10.0,15.0,92,0.00,,,0.79,,2013-05-03 20:11:00,
2013-05-03 15:21:00,45.0,43.0,-100.00,NE,40,10.0,15.0,92,0.00,,,0.79,,2013-05-03 20:21:00,
2013-05-03 15:52:00,46.0,44.0,-100.00,NE,52,11.0,16.0,91,0.01,,,0.80,,2013-05-03 20:52:00,
2013-05-03 16:01:00,46.0,44.0,-100.00,NE,52,11.0,16.0,91,0.01,,,0.80,,2013-05-03 21:01:00,
2013-05-03 16:11:00,46.0,44.0,-100.00,NE,52,11.0,16.0,91,0.01,,,0.80,,2013-05-03 21:11:00,
2013-05-03 16:21:00,46.0,44.0,-100.00,NE,52,11.0,16.0,91,0.01,,,0.80,,2013-05-03 21:21:00,
2013-05-03 16:53:00,46.0,44.0,-100.00,ENE,58,10.0,16.0,91,0.03,,,0.83,,2013-05-03 21:53:00,
2013-05-03 17:03:00,46.0,44.0,-100.00,ENE,58,10.0,16.0,91,0.03,,,0.83,,2013-05-03 22:03:00,
2013-05-03 17:13:00,46.0,44.0,-100.00,ENE,58,10.0,16.0,91,0.03,,,0.83,,2013-05-03 22:13:00,
2013-05-03 17:22:00,46.0,44.0,-100.00,ENE,58,10.0,16.0,91,0.03,,,0.83,,2013-05-03 22:22:00,
2013-05-03 19:52:00,47.0,45.0,-100.00,NE,35,5.0,14.0,94,-99.99,,,0.61,,2013-05-04 00:52:00,
2013-05-03 20:01:00,47.0,45.0,-100.00,NE,35,5.0,14.0,94,-99.99,,,0.61,,2013-05-04 01:01:00,
2013-05-03 20:11:00,47.0,45.0,-100.00,NE,35,5.0,14.0,94,-99.99,,,0.61,,2013-05-04 01:11:00,
2013-05-03 20:21:00,47.0,45.0,-100.00,NE,35,5.0,14.0,94,-99.99,,,0.61,,2013-05-04 01:21:00,
2013-05-03 20:52:00,48.0,46.0,-100.00,NNE,25,5.0,12.0,92,0.00,,,0.49,,2013-05-04 01:52:00,
2013-05-03 21:02:00,48.0,46.0,-100.00,NNE,25,5.0,12.0,92,0.00,,,0.49,,2013-05-04 02:02:00,
2013-05-03 21:11:00,48.0,46.0,-100.00,NNE,25,5.0,12.0,92,0.00,,,0.49,,2013-05-04 02:11:00,
2013-05-03 21:21:00,48.0,46.0,-100.00,NNE,25,5.0,12.0,92,0.00,,,0.49,,2013-05-04 02:21:00,
2013-05-03 21:52:00,48.0,46.0,-100.00,NE,34,4.0,9.0,92,0.00,,,0.45,,2013-05-04 02:52:00,
2013-05-03 22:02:00,48.0,46.0,-100.00,NE,34,4.0,9.0,92,0.00,,,0.45,,2013-05-04 03:02:00,
2013-05-03 22:11:00,48.0,46.0,-100.00,NE,34,4.0,9.0,92,0.00,,,0.45,,2013-05-04 03:11:00,
2013-05-03 22:22:00,48.0,46.0,-100.00,NE,34,4.0,9.0,92,0.00,,,0.45,,2013-05-04 03:22:00,
2013-05-03 22:53:00,49.0,46.0,-100.00,NE,41,5.0,9.0,90,0.00,,,0.42,,2013-05-04 03:53:00,
2013-05-03 23:02:00,49.0,46.0,-100.00,NE,41,5.0,9.0,90,0.00,,,0.42,,2013-05-04 04:02:00,
2013-05-03 23:12:00,49.0,46.0,-100.00,NE,41,5.0,9.0,90,0.00,,,0.42,,2013-05-04 04:12:00,
2013-05-03 23:22:00,49.0,46.0,-100.00,NE,41,5.0,9.0,90,0.00,,,0.42,,2013-05-04 04:22:00,
2013-05-03 23:52:00,50.0,46.0,-100.00,NE,51,4.0,11.0,86,0.00,,,0.41,,2013-05-04 04:52:00,